Time;durP1;ratioP1;P1;durP2;ratioP2;P2;SDS_P1;SDS_P2;PMS_P1;PMS_P2;Temp;Humidity;BMP_temperature;BMP_pressure;BME280_temperature;BME280_humidity;BME280_pressure;Samples;Min_cycle;Max_cycle;Signal;HPM_P1;HPM_P2
2021/09/23 00:01:04;;;;;;;23.37;19.83;;;;;;;13.09;100.00;101457.84;5009664;28;20219;-74
2021/09/23 00:05:56;;;;;;;22.83;20.53;;;;;;;12.92;100.00;101451.81;5011172;28;20235;-74
2021/09/23 00:08:26;;;;;;;26.13;21.50;;;;;;;12.86;100.00;101436.53;5016678;28;20681;-74
2021/09/23 00:10:52;;;;;;;22.97;20.27;;;;;;;12.73;100.00;101434.28;5017367;28;20223;-74
2021/09/23 00:13:20;;;;;;;20.03;17.63;;;;;;;12.68;100.00;101417.88;5023079;28;20251;-74
2021/09/23 00:15:45;;;;;;;21.93;18.03;;;;;;;12.67;100.00;101428.25;4997375;28;20359;-74
2021/09/23 00:18:13;;;;;;;25.43;19.53;;;;;;;12.68;100.00;101408.91;4989783;28;20188;-74
2021/09/23 00:20:42;;;;;;;23.73;20.27;;;;;;;12.69;100.00;101405.91;5016639;28;20298;-74
2021/09/23 00:23:12;;;;;;;24.00;21.23;;;;;;;12.69;100.00;101400.44;5013957;28;20181;-74
2021/09/23 00:25:43;;;;;;;25.93;21.50;;;;;;;12.62;100.00;101390.88;4984086;28;20694;-74
2021/09/23 00:28:08;;;;;;;27.27;21.90;;;;;;;12.59;100.00;101393.34;5026068;28;20176;-74
2021/09/23 00:30:35;;;;;;;28.87;21.90;;;;;;;12.57;100.00;101396.31;5033000;28;20270;-73
2021/09/23 00:33:02;;;;;;;27.77;22.87;;;;;;;12.61;100.00;101397.41;4995174;28;20273;-74
2021/09/23 00:35:28;;;;;;;27.23;22.00;;;;;;;12.58;100.00;101399.84;5012473;28;20258;-74
2021/09/23 00:37:53;;;;;;;27.40;22.70;;;;;;;12.63;100.00;101399.88;5000759;28;20223;-74
2021/09/23 00:40:22;;;;;;;27.70;23.73;;;;;;;12.66;100.00;101391.19;5016244;28;20234;-75
2021/09/23 00:42:48;;;;;;;28.23;23.20;;;;;;;12.65;100.00;101392.25;5017194;28;20172;-74
2021/09/23 00:45:17;;;;;;;28.93;22.87;;;;;;;12.66;100.00;101383.00;5015982;28;20283;-76
2021/09/23 00:47:45;;;;;;;30.67;23.63;;;;;;;12.68;100.00;101382.44;5015450;28;20185;-74
2021/09/23 00:50:11;;;;;;;28.03;23.47;;;;;;;12.63;100.00;101369.91;4980559;28;20643;-74
2021/09/23 00:52:38;;;;;;;28.77;23.67;;;;;;;12.65;100.00;101362.28;4981393;28;20209;-75
2021/09/23 00:55:07;;;;;;;28.17;22.63;;;;;;;12.71;100.00;101367.47;5013238;28;20235;-75
2021/09/23 00:57:33;;;;;;;28.13;23.07;;;;;;;12.56;100.00;101363.88;5006234;28;20212;-75
2021/09/23 00:59:59;;;;;;;27.20;23.00;;;;;;;12.55;100.00;101359.53;4996862;28;20209;-75
2021/09/23 01:02:27;;;;;;;26.37;22.07;;;;;;;12.57;100.00;101351.91;4980741;28;20227;-75
2021/09/23 01:05:00;;;;;;;26.50;22.03;;;;;;;12.47;100.00;101340.94;5017131;28;20275;-75
2021/09/23 01:07:26;;;;;;;29.37;23.47;;;;;;;12.54;100.00;101346.97;5016246;28;20227;-75
2021/09/23 01:09:55;;;;;;;28.20;22.47;;;;;;;12.39;100.00;101338.75;5000652;28;20564;-75
2021/09/23 01:12:24;;;;;;;28.63;23.00;;;;;;;12.35;100.00;101333.00;4995927;28;20316;-74
2021/09/23 01:14:55;;;;;;;24.27;21.60;;;;;;;12.26;100.00;101330.25;4995134;28;20744;-75
2021/09/23 01:17:23;;;;;;;25.10;21.47;;;;;;;12.38;100.00;101328.94;5013376;28;20224;-74
2021/09/23 01:19:57;;;;;;;27.77;22.40;;;;;;;12.32;100.00;101330.00;5010962;28;20747;-75
2021/09/23 01:22:22;;;;;;;25.10;21.90;;;;;;;12.36;100.00;101336.56;5012264;28;20256;-74
2021/09/23 01:25:07;;;;;;;28.77;22.90;;;;;;;12.34;100.00;101331.41;5024808;28;20275;-75
2021/09/23 01:27:36;;;;;;;26.83;22.97;;;;;;;12.34;100.00;101314.19;5024220;28;20197;-75
2021/09/23 01:30:07;;;;;;;26.77;22.97;;;;;;;12.24;100.00;101319.63;5009595;28;20263;-75
2021/09/23 01:32:39;;;;;;;29.43;23.80;;;;;;;12.17;100.00;101313.59;5031834;28;20269;-74
2021/09/23 01:35:07;;;;;;;28.57;23.03;;;;;;;12.14;100.00;101308.72;5014739;28;20704;-75
2021/09/23 01:37:39;;;;;;;26.33;22.97;;;;;;;12.01;100.00;101306.47;5012633;28;20259;-75
2021/09/23 01:40:08;;;;;;;28.17;22.47;;;;;;;11.94;100.00;101295.00;5030709;28;20177;-74
2021/09/23 01:42:38;;;;;;;26.07;21.87;;;;;;;11.95;100.00;101291.19;5038043;28;20176;-76
2021/09/23 01:45:05;;;;;;;30.70;23.67;;;;;;;12.04;100.00;101286.06;5009373;28;20643;-75
2021/09/23 01:47:38;;;;;;;26.63;23.07;;;;;;;12.04;100.00;101281.41;5002060;28;20727;-74
2021/09/23 01:50:04;;;;;;;30.07;23.73;;;;;;;12.03;100.00;101271.63;5009067;28;20172;-74
2021/09/23 01:52:32;;;;;;;28.77;24.47;;;;;;;11.97;100.00;101269.94;5030220;28;20228;-73
2021/09/23 01:55:17;;;;;;;31.80;24.43;;;;;;;12.15;100.00;101263.22;4997577;28;20196;-74
2021/09/23 01:57:45;;;;;;;31.57;24.07;;;;;;;12.20;100.00;101266.78;5013865;28;20184;-74
2021/09/23 02:00:13;;;;;;;33.53;25.73;;;;;;;12.22;100.00;101261.88;5018943;28;20195;-75
2021/09/23 02:02:39;;;;;;;34.20;25.93;;;;;;;12.17;100.00;101253.69;4992375;28;20189;-75
2021/09/23 02:05:11;;;;;;;31.67;24.93;;;;;;;12.19;100.00;101251.50;5021794;28;20212;-74
2021/09/23 02:07:39;;;;;;;32.17;26.03;;;;;;;12.13;100.00;101255.31;5014999;28;20187;-75
2021/09/23 02:10:09;;;;;;;34.77;26.77;;;;;;;12.10;100.00;101253.09;4995035;28;20180;-74
2021/09/23 02:12:35;;;;;;;29.73;25.13;;;;;;;12.07;100.00;101248.22;4997187;28;20705;-75
2021/09/23 02:15:02;;;;;;;34.97;26.27;;;;;;;12.10;100.00;101244.94;5001683;28;20208;-75
2021/09/23 02:17:29;;;;;;;36.43;27.33;;;;;;;12.08;100.00;101238.13;4978388;28;20279;-75
2021/09/23 02:19:57;;;;;;;37.97;26.10;;;;;;;12.05;100.00;101227.78;5018147;28;20650;-75
2021/09/23 02:22:25;;;;;;;35.63;26.77;;;;;;;12.27;100.00;101225.66;4998538;28;20311;-75
2021/09/23 02:24:53;;;;;;;33.47;26.80;;;;;;;12.23;100.00;101214.47;4995196;28;20557;-74
2021/09/23 02:27:21;;;;;;;33.67;25.93;;;;;;;12.20;100.00;101209.59;5018946;28;20236;-74
2021/09/23 02:29:49;;;;;;;32.00;25.53;;;;;;;12.19;100.00;101210.66;5000255;28;20553;-74
2021/09/23 02:32:17;;;;;;;34.17;26.53;;;;;;;12.13;100.00;101214.47;5030500;28;20281;-75
2021/09/23 02:34:45;;;;;;;35.43;27.00;;;;;;;12.05;100.00;101215.00;5030685;28;20281;-74
2021/09/23 02:37:11;;;;;;;32.80;26.67;;;;;;;12.05;100.00;101206.81;5014152;28;20232;-74
2021/09/23 02:39:36;;;;;;;35.67;26.83;;;;;;;12.05;100.00;101206.81;5028790;28;20283;-75
2021/09/23 02:42:02;;;;;;;36.57;27.63;;;;;;;12.09;100.00;101202.47;4977913;28;20224;-75
2021/09/23 02:44:30;;;;;;;35.73;27.43;;;;;;;12.10;100.00;101204.09;4978772;28;20197;-75
2021/09/23 02:46:56;;;;;;;36.20;27.20;;;;;;;12.14;100.00;101188.88;5013767;28;20228;-74
2021/09/23 02:49:21;;;;;;;39.73;27.80;;;;;;;12.16;100.00;101180.41;5014270;28;20185;-74
2021/09/23 02:51:49;;;;;;;32.67;26.03;;;;;;;12.00;100.00;101176.03;5011538;28;20594;-75
2021/09/23 02:54:20;;;;;;;34.23;26.30;;;;;;;12.02;100.00;101171.16;4979223;28;20267;-75
2021/09/23 02:56:48;;;;;;;37.13;26.77;;;;;;;11.96;100.00;101170.31;5001794;28;20229;-75
2021/09/23 02:59:13;;;;;;;37.97;28.00;;;;;;;11.91;100.00;101182.28;5024850;28;20218;-75
2021/09/23 03:01:41;;;;;;;34.80;27.50;;;;;;;12.01;100.00;101178.50;4997654;28;20225;-75
2021/09/23 03:04:07;;;;;;;34.90;27.83;;;;;;;12.02;100.00;101179.31;4994726;28;20563;-75
2021/09/23 03:06:32;;;;;;;35.30;27.13;;;;;;;11.99;100.00;101175.19;4993655;28;20224;-75
2021/09/23 03:09:00;;;;;;;37.57;28.27;;;;;;;11.96;100.00;101174.94;4994361;28;20669;-75
2021/09/23 03:11:30;;;;;;;35.80;27.40;;;;;;;11.78;100.00;101170.00;4999668;28;20224;-75
2021/09/23 03:14:03;;;;;;;38.97;28.03;;;;;;;11.94;100.00;101166.19;5014316;28;20216;-75
2021/09/23 03:16:31;;;;;;;39.13;29.07;;;;;;;12.03;100.00;101154.53;5021620;28;20312;-74
2021/09/23 03:18:56;;;;;;;37.93;28.07;;;;;;;12.01;100.00;101162.16;5012676;28;20184;-75
2021/09/23 03:21:24;;;;;;;37.17;29.20;;;;;;;11.81;100.00;101161.25;5009637;28;20228;-75
2021/09/23 03:23:50;;;;;;;40.77;28.63;;;;;;;11.72;100.00;101151.16;5021448;28;20211;-74
2021/09/23 03:26:18;;;;;;;36.10;27.90;;;;;;;11.77;100.00;101149.28;5018549;28;20213;-75
2021/09/23 03:28:45;;;;;;;36.60;28.57;;;;;;;11.78;100.00;101144.69;4985520;28;20559;-74
2021/09/23 03:31:11;;;;;;;43.30;30.40;;;;;;;11.74;100.00;101143.56;5001105;28;20303;-74
2021/09/23 03:33:39;;;;;;;38.57;29.40;;;;;;;11.77;100.00;101135.69;5029931;28;20227;-75
2021/09/23 03:36:07;;;;;;;38.30;28.97;;;;;;;11.73;100.00;101137.31;5012811;28;20220;-74
2021/09/23 03:38:32;;;;;;;39.50;28.73;;;;;;;11.76;100.00;101130.53;5013179;28;20180;-74
2021/09/23 03:40:59;;;;;;;38.93;29.50;;;;;;;11.80;100.00;101124.25;5007561;28;20267;-74
2021/09/23 03:43:24;;;;;;;39.17;28.87;;;;;;;11.83;100.00;101120.19;4993982;28;20181;-74
2021/09/23 03:45:50;;;;;;;41.70;30.40;;;;;;;11.69;100.00;101125.31;4996074;28;20327;-75
2021/09/23 03:48:18;;;;;;;38.90;29.27;;;;;;;11.72;100.00;101121.25;5013403;28;20176;-74
2021/09/23 03:50:43;;;;;;;39.90;30.13;;;;;;;11.77;100.00;101126.69;5003689;28;20216;-74
2021/09/23 03:53:09;;;;;;;38.67;29.40;;;;;;;11.73;100.00;101120.16;5020708;28;20203;-75
2021/09/23 03:55:37;;;;;;;38.57;29.10;;;;;;;11.85;100.00;101128.88;5009333;28;20221;-75
2021/09/23 03:58:03;;;;;;;39.80;30.43;;;;;;;11.89;100.00;101100.88;5002114;28;20214;-75
2021/09/23 04:00:30;;;;;;;41.93;29.83;;;;;;;11.92;100.00;101086.72;5017807;28;20250;-74
2021/09/23 04:02:56;;;;;;;39.03;29.67;;;;;;;11.81;100.00;101073.38;4989064;28;20215;-73
2021/09/23 04:05:22;;;;;;;40.20;28.93;;;;;;;11.86;100.00;101067.94;5019289;28;20212;-74
2021/09/23 04:07:48;;;;;;;38.97;30.13;;;;;;;11.81;100.00;101073.38;5006994;28;20287;-74
2021/09/23 04:10:14;;;;;;;40.43;29.33;;;;;;;11.73;100.00;101082.06;4981258;28;20189;-74
2021/09/23 04:12:42;;;;;;;42.10;30.63;;;;;;;11.70;100.00;101078.00;5015905;28;20224;-75
2021/09/23 04:15:08;;;;;;;42.17;30.50;;;;;;;11.83;100.00;101079.34;4991150;28;20201;-74
2021/09/23 04:17:37;;;;;;;42.73;31.50;;;;;;;11.79;100.00;101081.78;4977952;28;20777;-74
2021/09/23 04:20:07;;;;;;;39.40;29.97;;;;;;;11.73;100.00;101071.19;5009032;28;20582;-75
2021/09/23 04:22:35;;;;;;;43.43;32.10;;;;;;;11.69;100.00;101076.34;4998341;28;20639;-74
2021/09/23 04:25:03;;;;;;;42.03;30.77;;;;;;;11.89;100.00;101070.13;5027019;28;20208;-74
2021/09/23 04:27:29;;;;;;;42.07;31.60;;;;;;;11.83;100.00;101073.91;4998424;28;20217;-74
2021/09/23 04:29:54;;;;;;;41.37;31.27;;;;;;;11.86;100.00;101071.47;5012600;28;20620;-74
2021/09/23 04:32:22;;;;;;;41.20;30.93;;;;;;;11.88;100.00;101063.03;5007388;28;20232;-74
2021/09/23 04:34:50;;;;;;;42.00;31.70;;;;;;;11.72;100.00;101072.25;5008843;28;20238;-75
2021/09/23 04:37:16;;;;;;;42.73;31.17;;;;;;;11.98;100.00;101059.25;5003570;28;20217;-76
2021/09/23 04:39:46;;;;;;;42.83;30.57;;;;;;;11.89;100.00;101064.69;4988801;28;20561;-75
2021/09/23 04:42:16;;;;;;;43.80;31.23;;;;;;;11.82;100.00;101062.22;4998873;28;20335;-74
2021/09/23 04:44:42;;;;;;;42.13;29.57;;;;;;;11.91;100.00;101067.94;5007654;28;20307;-75
2021/09/23 04:47:10;;;;;;;39.00;30.13;;;;;;;11.91;100.00;101066.84;5014987;28;20316;-75
2021/09/23 04:49:44;;;;;;;42.40;30.90;;;;;;;11.91;100.00;101064.13;4979530;28;20539;-75
2021/09/23 04:52:13;;;;;;;40.80;30.17;;;;;;;12.03;100.00;101067.41;5003434;28;20291;-75
2021/09/23 04:54:38;;;;;;;46.63;30.73;;;;;;;11.97;100.00;101063.03;4980733;28;20212;-75
2021/09/23 04:57:06;;;;;;;40.57;29.80;;;;;;;11.91;100.00;101058.69;4998680;28;20209;-74
2021/09/23 04:59:34;;;;;;;39.87;30.60;;;;;;;11.96;100.00;101066.84;5013730;28;20216;-75
2021/09/23 05:02:00;;;;;;;43.00;29.20;;;;;;;11.96;100.00;101063.31;5001945;28;20853;-74
2021/09/23 05:04:26;;;;;;;41.67;30.37;;;;;;;12.12;100.00;101071.22;5029358;28;20219;-73
2021/09/23 05:06:57;;;;;;;41.90;30.27;;;;;;;12.14;100.00;101055.44;5029366;28;20213;-76
2021/09/23 05:09:22;;;;;;;39.77;30.03;;;;;;;12.31;100.00;101047.81;5012842;28;20326;-74
2021/09/23 05:11:50;;;;;;;37.77;29.53;;;;;;;12.26;100.00;101049.72;5014467;28;20785;-74
2021/09/23 05:14:17;;;;;;;39.13;29.87;;;;;;;12.25;100.00;101037.97;5012384;28;20219;-74
2021/09/23 05:16:43;;;;;;;39.37;29.57;;;;;;;12.49;100.00;101039.03;5015465;28;20298;-74
2021/09/23 05:19:13;;;;;;;38.37;29.30;;;;;;;12.72;100.00;101033.81;5021901;28;20184;-74
2021/09/23 05:21:39;;;;;;;38.20;28.93;;;;;;;12.45;100.00;101032.50;5012558;28;20258;-76
2021/09/23 05:24:05;;;;;;;36.87;27.40;;;;;;;12.40;100.00;101008.81;4998785;28;20196;-75
2021/09/23 05:26:33;;;;;;;37.83;27.13;;;;;;;12.47;100.00;101008.53;5000384;28;20359;-74
2021/09/23 05:28:58;;;;;;;33.00;26.60;;;;;;;12.37;100.00;100992.22;5014031;28;20193;-75
2021/09/23 05:31:24;;;;;;;32.37;26.13;;;;;;;12.45;100.00;100994.38;5011793;28;20596;-74
2021/09/23 05:33:54;;;;;;;33.90;25.80;;;;;;;12.41;100.00;100994.09;5026320;28;20211;-75
2021/09/23 05:36:20;;;;;;;32.90;25.00;;;;;;;12.34;100.00;100981.84;5015299;28;20228;-75
2021/09/23 05:38:48;;;;;;;35.40;25.90;;;;;;;12.35;100.00;100980.78;5031463;28;20547;-75
2021/09/23 05:41:16;;;;;;;32.57;26.90;;;;;;;12.39;100.00;100973.69;5015265;28;20235;-74
2021/09/23 05:43:42;;;;;;;32.73;25.50;;;;;;;12.47;100.00;100976.66;5011718;28;20185;-74
2021/09/23 05:46:11;;;;;;;33.83;26.43;;;;;;;12.48;100.00;100985.66;4995957;28;20232;-75
2021/09/23 05:48:36;;;;;;;33.83;26.00;;;;;;;12.41;100.00;100993.28;4985006;28;20173;-74
2021/09/23 05:51:02;;;;;;;32.57;25.97;;;;;;;12.43;100.00;101002.00;5012963;28;20318;-74
2021/09/23 05:53:27;;;;;;;33.33;25.60;;;;;;;12.47;100.00;100997.63;4990594;28;20219;-74
2021/09/23 05:55:54;;;;;;;34.60;26.13;;;;;;;12.51;100.00;100996.81;5008937;28;20224;-73
2021/09/23 05:58:19;;;;;;;30.40;25.50;;;;;;;12.53;100.00;100991.09;5009307;28;20193;-75
2021/09/23 06:00:49;;;;;;;32.47;24.70;;;;;;;12.62;100.00;100990.25;4994813;28;20240;-75
2021/09/23 06:03:16;;;;;;;37.43;26.53;;;;;;;12.59;100.00;100989.97;4995345;28;20182;-75
2021/09/23 06:05:49;;;;;;;32.40;24.83;;;;;;;12.67;100.00;100987.47;4998231;28;20591;-75
2021/09/23 06:08:24;;;;;;;32.63;25.00;;;;;;;12.63;100.00;101001.94;5008496;28;20195;-75
2021/09/23 06:10:52;;;;;;;31.10;24.43;;;;;;;12.66;100.00;100998.69;5011448;28;20217;-74
2021/09/23 06:13:17;;;;;;;32.93;25.57;;;;;;;12.81;100.00;101003.00;4999105;28;20199;-75
2021/09/23 06:15:43;;;;;;;31.60;24.43;;;;;;;12.93;100.00;100998.06;5031262;28;20236;-75
2021/09/23 06:18:12;;;;;;;32.73;24.10;;;;;;;13.12;100.00;100982.69;5013570;28;20184;-75
2021/09/23 06:20:47;;;;;;;29.90;24.10;;;;;;;13.06;100.00;100980.25;4979828;28;20216;-75
2021/09/23 06:23:13;;;;;;;28.57;24.00;;;;;;;13.38;100.00;100959.63;4997154;28;20248;-74
2021/09/23 06:25:41;;;;;;;33.00;24.77;;;;;;;13.15;100.00;100957.59;5008831;28;20256;-75
2021/09/23 06:28:10;;;;;;;32.17;24.40;;;;;;;13.21;100.00;100951.81;5006896;28;20263;-72
2021/09/23 06:30:39;;;;;;;30.70;23.80;;;;;;;13.28;100.00;100943.34;4995072;28;20224;-74
2021/09/23 06:33:09;;;;;;;28.70;22.63;;;;;;;13.34;100.00;100950.38;4995344;28;20252;-74
2021/09/23 06:35:35;;;;;;;30.70;23.07;;;;;;;13.41;100.00;100938.06;5012578;28;20216;-74
2021/09/23 06:38:00;;;;;;;30.77;22.80;;;;;;;13.40;100.00;100943.78;5014150;28;20195;-76
2021/09/23 06:40:26;;;;;;;28.97;23.47;;;;;;;13.37;100.00;100941.63;4997846;28;20220;-74
2021/09/23 06:42:52;;;;;;;29.67;23.93;;;;;;;13.61;100.00;100946.91;5014855;28;20219;-73
2021/09/23 06:45:18;;;;;;;28.40;22.50;;;;;;;13.65;100.00;100915.19;5022976;28;20204;-76
2021/09/23 06:47:44;;;;;;;29.20;22.67;;;;;;;13.62;100.00;100913.03;5023717;28;20189;-73
2021/09/23 06:50:10;;;;;;;29.67;22.30;;;;;;;13.66;100.00;100911.38;5018986;28;20194;-73
2021/09/23 06:52:35;;;;;;;26.17;22.03;;;;;;;13.87;100.00;100912.81;5030448;28;20208;-73
2021/09/23 06:55:01;;;;;;;26.13;22.77;;;;;;;13.77;100.00;100901.97;5020139;28;20213;-74
2021/09/23 06:57:27;;;;;;;27.30;22.43;;;;;;;13.93;100.00;100911.66;5023691;28;20662;-74
2021/09/23 07:00:12;;;;;;;27.50;22.50;;;;;;;13.88;100.00;100898.03;5025101;28;20810;-73
2021/09/23 07:03:03;;;;;;;27.50;21.77;;;;;;;14.01;100.00;100894.63;5008290;28;20195;-73
2021/09/23 07:05:50;;;;;;;27.47;21.47;;;;;;;14.07;100.00;100877.16;4989733;28;20221;-75
2021/09/23 07:08:19;;;;;;;26.47;21.83;;;;;;;14.09;100.00;100874.94;4978340;28;20670;-75
2021/09/23 07:10:49;;;;;;;24.63;20.83;;;;;;;14.30;100.00;100869.78;4994021;28;20220;-73
2021/09/23 07:13:18;;;;;;;29.60;21.67;;;;;;;14.21;100.00;100875.34;4979407;28;20228;-76
2021/09/23 07:15:46;;;;;;;27.53;21.33;;;;;;;14.20;100.00;100862.78;5008607;28;20602;-74
2021/09/23 07:18:12;;;;;;;24.27;20.27;;;;;;;14.28;100.00;100866.53;4997747;28;20195;-76
2021/09/23 07:20:41;;;;;;;27.43;21.13;;;;;;;14.31;100.00;100859.66;5005305;28;20216;-75
2021/09/23 07:23:09;;;;;;;28.37;21.77;;;;;;;14.21;100.00;100853.47;5015102;28;20180;-75
2021/09/23 07:25:37;;;;;;;26.77;21.30;;;;;;;14.24;100.00;100870.91;5002899;28;20274;-74
2021/09/23 07:28:15;;;;;;;30.73;21.97;;;;;;;14.26;100.00;100868.69;5000012;28;20229;-75
2021/09/23 07:30:45;;;;;;;27.07;21.53;;;;;;;14.42;100.00;100863.88;5013626;28;20215;-74
2021/09/23 07:33:15;;;;;;;25.57;20.97;;;;;;;14.50;100.00;100866.78;5015531;28;20208;-74
2021/09/23 07:35:45;;;;;;;26.30;20.83;;;;;;;14.65;100.00;100870.16;4998824;28;20735;-74
2021/09/23 07:38:16;;;;;;;28.33;20.80;;;;;;;14.66;100.00;100857.28;5030148;28;20314;-73
2021/09/23 07:40:45;;;;;;;25.90;21.00;;;;;;;14.79;100.00;100857.34;5002493;28;20223;-75
2021/09/23 07:43:12;;;;;;;27.47;21.53;;;;;;;14.70;100.00;100847.38;4994550;28;20181;-75
2021/09/23 07:45:41;;;;;;;32.97;21.83;;;;;;;14.79;100.00;100845.63;4968106;28;20270;-75
2021/09/23 07:48:07;;;;;;;30.17;21.47;;;;;;;14.93;100.00;100836.38;4977433;28;20627;-76
2021/09/23 07:50:40;;;;;;;28.07;21.70;;;;;;;15.03;100.00;100845.22;5001652;28;20307;-74
2021/09/23 07:53:07;;;;;;;24.70;20.23;;;;;;;15.20;100.00;100842.84;4981491;28;20223;-78
2021/09/23 07:55:35;;;;;;;26.85;21.70;;;;;;;15.21;100.00;100832.69;5023179;28;20228;-75
2021/09/23 07:58:00;;;;;;;28.65;22.05;;;;;;;15.35;100.00;100823.41;5004746;28;20205;-74
2021/09/23 08:00:27;;;;;;;27.90;21.57;;;;;;;15.36;100.00;100814.09;5023566;28;20188;-76
2021/09/23 08:02:55;;;;;;;27.50;21.57;;;;;;;15.58;100.00;100815.06;4993927;28;20277;-74
2021/09/23 08:05:28;;;;;;;27.17;21.73;;;;;;;15.47;100.00;100793.63;4992878;28;20847;-75
2021/09/23 08:07:58;;;;;;;24.83;21.10;;;;;;;15.63;100.00;100781.31;4978406;28;20188;-74
2021/09/23 08:10:26;;;;;;;25.83;20.83;;;;;;;15.68;100.00;100778.47;4994804;28;20766;-75
2021/09/23 08:12:54;;;;;;;29.30;21.63;;;;;;;15.52;100.00;100772.44;4999273;28;20216;-75
2021/09/23 08:15:20;;;;;;;27.40;21.85;;;;;;;15.60;100.00;100770.94;5008221;28;20721;-74
2021/09/23 08:18:19;;;;;;;26.63;20.80;;;;;;;15.84;100.00;100772.38;5011038;28;20844;-73
2021/09/23 08:21:16;;;;;;;28.13;22.10;;;;;;;16.05;100.00;100774.44;5006413;28;20695;-76
2021/09/23 08:23:44;;;;;;;26.67;20.63;;;;;;;16.23;100.00;100782.56;5010013;28;20284;-75
2021/09/23 08:26:10;;;;;;;28.80;20.67;;;;;;;16.21;100.00;100781.25;5012066;28;20612;-75
2021/09/23 08:28:37;;;;;;;26.65;20.98;;;;;;;16.33;100.00;100776.06;5002964;28;20690;-74
2021/09/23 08:31:09;;;;;;;24.30;19.83;;;;;;;16.40;100.00;100766.28;4994601;28;20723;-74
2021/09/23 08:33:45;;;;;;;27.98;19.98;;;;;;;16.67;100.00;100760.75;5017110;28;20215;-74
2021/09/23 08:36:12;;;;;;;27.45;20.13;;;;;;;16.60;100.00;100763.91;4984868;28;20311;-75
2021/09/23 08:38:37;;;;;;;25.95;20.10;;;;;;;16.63;100.00;100749.59;5004895;28;20181;-74
2021/09/23 08:41:06;;;;;;;23.92;19.38;;;;;;;16.68;100.00;100774.19;5002002;28;20640;-76
2021/09/23 08:43:32;;;;;;;24.23;19.38;;;;;;;16.72;100.00;100753.22;5017571;28;20212;-74
2021/09/23 08:45:58;;;;;;;22.17;18.35;;;;;;;16.93;100.00;100746.13;5028481;28;20220;-75
2021/09/23 08:48:29;;;;;;;22.48;18.25;;;;;;;16.79;100.00;100734.38;4981641;28;20595;-76
2021/09/23 08:50:58;;;;;;;28.38;19.10;;;;;;;16.96;100.00;100749.06;5000623;28;20211;-74
2021/09/23 08:53:27;;;;;;;26.67;19.73;;;;;;;17.29;100.00;100736.72;5016290;28;20208;-74
2021/09/23 08:55:52;;;;;;;21.95;17.52;;;;;;;17.23;100.00;100728.91;5031117;28;20616;-77
2021/09/23 08:58:20;;;;;;;22.13;18.10;;;;;;;17.35;100.00;100738.22;5024603;28;20169;-76
2021/09/23 09:01:04;;;;;;;23.23;18.00;;;;;;;17.45;100.00;100738.75;5014924;28;20223;-74
2021/09/23 09:03:33;;;;;;;22.63;16.30;;;;;;;17.69;100.00;100741.13;4996978;28;20192;-74
2021/09/23 09:06:19;;;;;;;20.73;16.23;;;;;;;17.67;100.00;100741.44;5018926;28;20649;-74
2021/09/23 09:09:19;;;;;;;19.17;16.02;;;;;;;17.53;100.00;100748.19;5005043;28;20605;-74
2021/09/23 09:11:46;;;;;;;17.60;15.27;;;;;;;17.58;100.00;100740.59;5012118;28;20224;-74
2021/09/23 09:14:28;;;;;;;17.73;15.23;;;;;;;17.57;100.00;100733.47;4996417;28;20279;-74
2021/09/23 09:17:02;;;;;;;19.63;15.52;;;;;;;17.47;100.00;100728.28;4989177;28;20223;-73
2021/09/23 09:19:48;;;;;;;17.98;15.07;;;;;;;17.84;100.00;100723.09;5007775;28;20279;-76
2021/09/23 09:22:24;;;;;;;18.90;14.85;;;;;;;17.98;100.00;100721.03;5002344;28;20223;-74
2021/09/23 09:25:05;;;;;;;18.40;15.13;;;;;;;17.84;100.00;100709.34;4982194;28;20209;-76
2021/09/23 09:27:38;;;;;;;17.60;15.13;;;;;;;18.16;100.00;100701.53;4999804;28;20220;-74
2021/09/23 09:30:18;;;;;;;22.17;15.80;;;;;;;18.45;100.00;100700.94;5003083;28;20184;-74
2021/09/23 09:32:57;;;;;;;19.98;15.65;;;;;;;18.37;100.00;100699.81;5003026;28;20208;-75
2021/09/23 09:35:34;;;;;;;16.92;15.13;;;;;;;18.41;100.00;100699.97;5011972;28;20228;-74
2021/09/23 09:38:00;;;;;;;20.95;15.52;;;;;;;18.01;100.00;100711.34;4999137;28;20188;-74
2021/09/23 09:40:34;;;;;;;18.13;15.27;;;;;;;17.76;100.00;100699.16;5015654;28;20239;-73
2021/09/23 09:43:10;;;;;;;19.85;16.25;;;;;;;17.84;100.00;100706.59;4999840;28;20218;-75
2021/09/23 09:45:38;;;;;;;19.08;15.90;;;;;;;17.59;100.00;100686.47;5005552;28;20338;-75
2021/09/23 09:48:06;;;;;;;19.52;16.30;;;;;;;17.57;100.00;100689.53;5021509;28;20568;-75
2021/09/23 09:50:34;;;;;;;20.23;16.58;;;;;;;17.53;100.00;100687.75;5031501;28;20220;-74
2021/09/23 09:53:12;;;;;;;20.63;16.42;;;;;;;17.33;100.00;100684.72;5008506;28;20196;-74
2021/09/23 09:55:43;;;;;;;19.23;16.35;;;;;;;17.34;100.00;100678.91;5013193;28;20266;-73
2021/09/23 09:58:13;;;;;;;21.60;17.20;;;;;;;17.38;100.00;100675.22;5015442;28;20192;-74
2021/09/23 10:00:41;;;;;;;19.23;16.20;;;;;;;17.29;100.00;100678.22;4996095;28;20632;-74
2021/09/23 10:03:09;;;;;;;19.50;16.40;;;;;;;17.36;100.00;100677.47;4985804;28;20184;-73
2021/09/23 10:05:40;;;;;;;23.30;16.52;;;;;;;17.52;100.00;100686.91;5011996;28;20216;-75
2021/09/23 10:08:07;;;;;;;20.85;16.42;;;;;;;17.34;100.00;100682.47;5015249;28;20275;-73
2021/09/23 10:10:35;;;;;;;21.23;16.05;;;;;;;17.45;100.00;100672.84;4998071;28;20299;-75
2021/09/23 10:13:07;;;;;;;19.80;15.90;;;;;;;17.53;100.00;100683.03;5000421;28;20192;-74
2021/09/23 10:15:33;;;;;;;20.42;16.02;;;;;;;17.50;100.00;100678.16;5014671;28;20250;-73
2021/09/23 10:18:00;;;;;;;19.15;16.17;;;;;;;17.43;100.00;100677.81;5022945;28;20188;-74
2021/09/23 10:20:26;;;;;;;20.35;15.85;;;;;;;17.67;100.00;100683.72;4994781;28;20228;-74
2021/09/23 10:22:53;;;;;;;18.58;15.43;;;;;;;17.95;100.00;100665.91;4995142;28;20173;-73
2021/09/23 10:25:27;;;;;;;19.70;15.80;;;;;;;17.86;100.00;100671.34;4983475;28;20705;-75
2021/09/23 10:27:59;;;;;;;19.73;15.43;;;;;;;17.71;100.00;100657.25;5007538;28;20676;-73
2021/09/23 10:30:36;;;;;;;18.27;14.60;;;;;;;17.71;100.00;100673.75;5031127;28;20231;-76
2021/09/23 10:33:03;;;;;;;17.00;14.20;;;;;;;17.62;100.00;100672.91;5012314;28;20208;-75
2021/09/23 10:35:31;;;;;;;14.73;12.55;;;;;;;17.68;100.00;100674.38;5011038;28;20224;-77
2021/09/23 10:38:04;;;;;;;15.13;13.25;;;;;;;17.47;100.00;100673.34;4997925;28;20181;-76
2021/09/23 10:40:31;;;;;;;17.45;12.75;;;;;;;17.47;100.00;100667.84;4994896;28;20212;-77
2021/09/23 10:43:03;;;;;;;15.10;13.23;;;;;;;17.62;100.00;100663.81;4982008;28;20227;-77
2021/09/23 10:45:33;;;;;;;17.30;13.10;;;;;;;17.76;100.00;100665.34;4980417;28;20217;-75
2021/09/23 10:48:02;;;;;;;15.70;12.05;;;;;;;17.80;100.00;100661.66;4999190;28;20271;-74
2021/09/23 10:50:36;;;;;;;16.83;12.73;;;;;;;17.97;100.00;100644.38;5007857;28;20256;-75
2021/09/23 10:53:06;;;;;;;14.38;12.10;;;;;;;18.04;100.00;100640.03;5001018;28;20558;-76
2021/09/23 10:55:37;;;;;;;17.58;12.77;;;;;;;17.87;100.00;100630.94;5022103;28;20574;-75
2021/09/23 10:58:05;;;;;;;15.98;13.07;;;;;;;17.98;100.00;100624.81;5001194;28;20268;-74
2021/09/23 11:00:34;;;;;;;14.30;11.23;;;;;;;18.17;100.00;100623.41;4994063;28;20240;-75
2021/09/23 11:03:09;;;;;;;16.67;11.85;;;;;;;18.44;100.00;100623.06;4997032;28;20185;-74
2021/09/23 11:05:36;;;;;;;15.80;12.60;;;;;;;18.45;100.00;100613.69;5013167;28;20223;-75
2021/09/23 11:08:09;;;;;;;14.13;12.13;;;;;;;18.29;100.00;100607.06;5030395;28;20181;-76
2021/09/23 11:10:43;;;;;;;12.40;11.07;;;;;;;18.17;100.00;100595.91;5014670;28;20631;-76
2021/09/23 11:13:12;;;;;;;14.70;12.80;;;;;;;18.15;100.00;100587.19;4995937;28;20301;-77